sensor_id;sensor_type;location;lat;lon;timestamp;temperature;humidity
19110;DHT22;9687;50.836;12.060;2023-01-10T00:49:09;9.00;89.60
19110;DHT22;9687;50.836;12.060;2023-01-10T00:51:41;9.00;89.60
19110;DHT22;9687;50.836;12.060;2023-01-10T00:54:08;9.00;89.60
19110;DHT22;9687;50.836;12.060;2023-01-10T00:56:36;9.00;89.60
19110;DHT22;9687;50.836;12.060;2023-01-10T00:59:04;9.00;89.50
19110;DHT22;9687;50.836;12.060;2023-01-10T01:01:32;9.00;89.60
19110;DHT22;9687;50.836;12.060;2023-01-10T01:04:02;9.00;89.60
19110;DHT22;9687;50.836;12.060;2023-01-10T01:06:31;9.00;89.60
19110;DHT22;9687;50.836;12.060;2023-01-10T01:08:59;9.00;89.50
19110;DHT22;9687;50.836;12.060;2023-01-10T01:11:26;9.00;89.60
19110;DHT22;9687;50.836;12.060;2023-01-10T01:13:54;9.00;89.50
19110;DHT22;9687;50.836;12.060;2023-01-10T01:16:21;9.00;89.50
19110;DHT22;9687;50.836;12.060;2023-01-10T01:18:49;9.00;89.50
19110;DHT22;9687;50.836;12.060;2023-01-10T01:21:17;9.00;89.50
19110;DHT22;9687;50.836;12.060;2023-01-10T01:23:47;9.00;89.40
19110;DHT22;9687;50.836;12.060;2023-01-10T01:26:16;9.00;89.40
19110;DHT22;9687;50.836;12.060;2023-01-10T01:28:43;9.00;89.40
19110;DHT22;9687;50.836;12.060;2023-01-10T01:31:11;9.00;89.30
19110;DHT22;9687;50.836;12.060;2023-01-10T01:33:39;9.00;89.30
19110;DHT22;9687;50.836;12.060;2023-01-10T01:36:07;9.00;89.30
19110;DHT22;9687;50.836;12.060;2023-01-10T01:38:35;9.00;89.30
19110;DHT22;9687;50.836;12.060;2023-01-10T01:41:05;9.00;89.30
19110;DHT22;9687;50.836;12.060;2023-01-10T01:43:58;9.00;89.20
19110;DHT22;9687;50.836;12.060;2023-01-10T01:46:26;9.00;89.20
19110;DHT22;9687;50.836;12.060;2023-01-10T01:48:55;9.00;89.20
19110;DHT22;9687;50.836;12.060;2023-01-10T01:51:22;9.00;89.20
19110;DHT22;9687;50.836;12.060;2023-01-10T01:53:53;8.90;89.10
19110;DHT22;9687;50.836;12.060;2023-01-10T01:56:24;8.90;89.10
19110;DHT22;9687;50.836;12.060;2023-01-10T01:58:53;8.90;89.10
19110;DHT22;9687;50.836;12.060;2023-01-10T02:01:21;8.90;89.10
19110;DHT22;9687;50.836;12.060;2023-01-10T02:03:50;8.90;89.10
19110;DHT22;9687;50.836;12.060;2023-01-10T02:06:20;8.90;89.10
19110;DHT22;9687;50.836;12.060;2023-01-10T02:08:50;8.90;89.10
19110;DHT22;9687;50.836;12.060;2023-01-10T02:11:18;8.80;89.00
19110;DHT22;9687;50.836;12.060;2023-01-10T02:13:49;8.80;89.10
19110;DHT22;9687;50.836;12.060;2023-01-10T02:16:18;8.80;89.10
19110;DHT22;9687;50.836;12.060;2023-01-10T02:18:45;8.80;89.00
19110;DHT22;9687;50.836;12.060;2023-01-10T02:24:04;8.70;88.90
19110;DHT22;9687;50.836;12.060;2023-01-10T02:26:47;8.70;89.00
19110;DHT22;9687;50.836;12.060;2023-01-10T02:29:38;8.70;89.00
19110;DHT22;9687;50.836;12.060;2023-01-10T02:32:19;8.70;89.00
19110;DHT22;9687;50.836;12.060;2023-01-10T02:34:52;8.70;89.00
19110;DHT22;9687;50.836;12.060;2023-01-10T02:37:23;8.70;89.00
19110;DHT22;9687;50.836;12.060;2023-01-10T02:39:54;8.70;89.00
19110;DHT22;9687;50.836;12.060;2023-01-10T02:42:26;8.60;89.00
19110;DHT22;9687;50.836;12.060;2023-01-10T02:44:57;8.60;89.00
19110;DHT22;9687;50.836;12.060;2023-01-10T02:47:27;8.60;89.00
19110;DHT22;9687;50.836;12.060;2023-01-10T02:50:15;8.60;88.50
19110;DHT22;9687;50.836;12.060;2023-01-10T02:52:48;8.60;89.10
19110;DHT22;9687;50.836;12.060;2023-01-10T02:55:16;8.60;89.10
19110;DHT22;9687;50.836;12.060;2023-01-10T02:57:44;8.60;89.10
19110;DHT22;9687;50.836;12.060;2023-01-10T03:00:20;8.60;89.20
19110;DHT22;9687;50.836;12.060;2023-01-10T03:03:01;8.60;89.30
19110;DHT22;9687;50.836;12.060;2023-01-10T03:05:43;8.60;90.00
19110;DHT22;9687;50.836;12.060;2023-01-10T03:08:17;8.60;89.30
19110;DHT22;9687;50.836;12.060;2023-01-10T03:10:49;8.60;89.30
19110;DHT22;9687;50.836;12.060;2023-01-10T03:13:19;8.60;89.40
19110;DHT22;9687;50.836;12.060;2023-01-10T03:15:47;8.60;89.30
19110;DHT22;9687;50.836;12.060;2023-01-10T03:18:19;8.60;89.30
19110;DHT22;9687;50.836;12.060;2023-01-10T03:20:48;8.60;89.30
19110;DHT22;9687;50.836;12.060;2023-01-10T03:23:17;8.50;89.20
19110;DHT22;9687;50.836;12.060;2023-01-10T03:25:45;8.60;89.30
19110;DHT22;9687;50.836;12.060;2023-01-10T03:28:15;8.50;88.50
19110;DHT22;9687;50.836;12.060;2023-01-10T03:30:45;8.50;89.30
19110;DHT22;9687;50.836;12.060;2023-01-10T03:33:17;8.50;88.60
19110;DHT22;9687;50.836;12.060;2023-01-10T03:35:49;8.50;89.30
19110;DHT22;9687;50.836;12.060;2023-01-10T03:38:23;8.50;89.20
19110;DHT22;9687;50.836;12.060;2023-01-10T03:40:54;8.50;89.30
19110;DHT22;9687;50.836;12.060;2023-01-10T03:43:24;8.50;89.30
19110;DHT22;9687;50.836;12.060;2023-01-10T03:46:12;8.40;89.20
19110;DHT22;9687;50.836;12.060;2023-01-10T03:48:43;8.40;89.30
19110;DHT22;9687;50.836;12.060;2023-01-10T03:51:12;8.40;89.30
19110;DHT22;9687;50.836;12.060;2023-01-10T03:53:41;8.40;89.40
19110;DHT22;9687;50.836;12.060;2023-01-10T03:56:11;8.30;89.40
19110;DHT22;9687;50.836;12.060;2023-01-10T03:58:39;8.20;89.50
19110;DHT22;9687;50.836;12.060;2023-01-10T04:01:07;8.20;89.80
19110;DHT22;9687;50.836;12.060;2023-01-10T04:03:34;8.10;89.90
19110;DHT22;9687;50.836;12.060;2023-01-10T04:06:03;8.10;90.00
19110;DHT22;9687;50.836;12.060;2023-01-10T04:08:30;8.00;90.20
19110;DHT22;9687;50.836;12.060;2023-01-10T04:10:57;8.00;90.00
19110;DHT22;9687;50.836;12.060;2023-01-10T04:13:25;8.00;90.40
19110;DHT22;9687;50.836;12.060;2023-01-10T04:15:52;7.90;90.30
19110;DHT22;9687;50.836;12.060;2023-01-10T04:18:19;7.90;90.30
19110;DHT22;9687;50.836;12.060;2023-01-10T04:20:47;7.90;90.50
19110;DHT22;9687;50.836;12.060;2023-01-10T04:23:18;8.00;90.20
19110;DHT22;9687;50.836;12.060;2023-01-10T04:25:45;8.00;90.50
19110;DHT22;9687;50.836;12.060;2023-01-10T04:28:13;8.10;90.40
19110;DHT22;9687;50.836;12.060;2023-01-10T04:30:40;8.10;90.40
19110;DHT22;9687;50.836;12.060;2023-01-10T04:33:07;8.10;90.40
19110;DHT22;9687;50.836;12.060;2023-01-10T04:35:36;8.20;90.40
19110;DHT22;9687;50.836;12.060;2023-01-10T04:38:03;8.20;90.50
19110;DHT22;9687;50.836;12.060;2023-01-10T04:40:32;8.30;90.50
19110;DHT22;9687;50.836;12.060;2023-01-10T06:42:02;8.70;90.70
19110;DHT22;9687;50.836;12.060;2023-01-10T06:44:30;8.70;91.10
19110;DHT22;9687;50.836;12.060;2023-01-10T06:46:57;8.70;91.10
19110;DHT22;9687;50.836;12.060;2023-01-10T06:49:25;8.70;91.20
19110;DHT22;9687;50.836;12.060;2023-01-10T06:51:52;8.70;91.20
19110;DHT22;9687;50.836;12.060;2023-01-10T06:54:20;8.70;91.20
19110;DHT22;9687;50.836;12.060;2023-01-10T06:56:47;8.70;91.30
19110;DHT22;9687;50.836;12.060;2023-01-10T06:59:16;8.70;91.30
19110;DHT22;9687;50.836;12.060;2023-01-10T07:01:44;8.70;91.30
19110;DHT22;9687;50.836;12.060;2023-01-10T07:04:11;8.70;91.40
19110;DHT22;9687;50.836;12.060;2023-01-10T07:06:39;8.70;91.40
19110;DHT22;9687;50.836;12.060;2023-01-10T07:09:07;8.70;91.40
19110;DHT22;9687;50.836;12.060;2023-01-10T07:11:36;8.70;91.20
19110;DHT22;9687;50.836;12.060;2023-01-10T07:14:04;8.70;91.50
19110;DHT22;9687;50.836;12.060;2023-01-10T07:16:34;8.70;91.50
19110;DHT22;9687;50.836;12.060;2023-01-10T07:19:02;8.70;91.50
19110;DHT22;9687;50.836;12.060;2023-01-10T07:21:29;8.70;91.50
19110;DHT22;9687;50.836;12.060;2023-01-10T07:23:57;8.70;91.50
19110;DHT22;9687;50.836;12.060;2023-01-10T07:26:24;8.70;91.60
19110;DHT22;9687;50.836;12.060;2023-01-10T07:28:52;8.60;91.50
19110;DHT22;9687;50.836;12.060;2023-01-10T07:31:20;8.60;91.50
19110;DHT22;9687;50.836;12.060;2023-01-10T07:33:53;8.60;91.50
19110;DHT22;9687;50.836;12.060;2023-01-10T07:36:21;8.70;91.50
19110;DHT22;9687;50.836;12.060;2023-01-10T07:38:48;8.60;91.50
19110;DHT22;9687;50.836;12.060;2023-01-10T07:41:15;8.60;91.50
19110;DHT22;9687;50.836;12.060;2023-01-10T07:43:46;8.60;91.50
19110;DHT22;9687;50.836;12.060;2023-01-10T07:46:33;8.60;91.50
19110;DHT22;9687;50.836;12.060;2023-01-10T07:49:20;8.60;91.50
19110;DHT22;9687;50.836;12.060;2023-01-10T07:51:48;8.60;91.40
19110;DHT22;9687;50.836;12.060;2023-01-10T07:54:15;8.60;91.40
19110;DHT22;9687;50.836;12.060;2023-01-10T07:56:43;8.70;91.50
19110;DHT22;9687;50.836;12.060;2023-01-10T07:59:12;8.70;91.50
19110;DHT22;9687;50.836;12.060;2023-01-10T08:01:40;8.70;91.40
19110;DHT22;9687;50.836;12.060;2023-01-10T08:04:07;8.70;91.40
19110;DHT22;9687;50.836;12.060;2023-01-10T08:06:36;8.60;91.30
19110;DHT22;9687;50.836;12.060;2023-01-10T08:09:03;8.70;91.30
19110;DHT22;9687;50.836;12.060;2023-01-10T08:11:32;8.70;91.30
19110;DHT22;9687;50.836;12.060;2023-01-10T08:14:00;8.70;91.20
19110;DHT22;9687;50.836;12.060;2023-01-10T08:16:30;8.70;91.20
19110;DHT22;9687;50.836;12.060;2023-01-10T08:18:58;8.70;91.10
19110;DHT22;9687;50.836;12.060;2023-01-10T08:21:27;8.70;91.00
19110;DHT22;9687;50.836;12.060;2023-01-10T08:24:00;8.70;91.00
19110;DHT22;9687;50.836;12.060;2023-01-10T08:26:33;8.70;90.90
19110;DHT22;9687;50.836;12.060;2023-01-10T08:29:02;8.70;90.80
19110;DHT22;9687;50.836;12.060;2023-01-10T08:31:31;8.70;90.70
19110;DHT22;9687;50.836;12.060;2023-01-10T08:33:59;8.60;90.60
19110;DHT22;9687;50.836;12.060;2023-01-10T08:36:27;8.70;90.70
19110;DHT22;9687;50.836;12.060;2023-01-10T08:39:03;8.70;90.70
19110;DHT22;9687;50.836;12.060;2023-01-10T08:41:34;8.70;90.70
19110;DHT22;9687;50.836;12.060;2023-01-10T08:44:06;8.70;90.70
19110;DHT22;9687;50.836;12.060;2023-01-10T08:46:37;8.70;90.70
19110;DHT22;9687;50.836;12.060;2023-01-10T08:49:05;8.80;90.70
19110;DHT22;9687;50.836;12.060;2023-01-10T08:51:34;8.80;90.70
19110;DHT22;9687;50.836;12.060;2023-01-10T08:54:08;8.80;90.60
19110;DHT22;9687;50.836;12.060;2023-01-10T08:56:37;8.80;90.50
19110;DHT22;9687;50.836;12.060;2023-01-10T08:59:05;8.90;90.50
19110;DHT22;9687;50.836;12.060;2023-01-10T09:01:35;8.90;90.50
19110;DHT22;9687;50.836;12.060;2023-01-10T09:04:04;8.90;90.50
19110;DHT22;9687;50.836;12.060;2023-01-10T09:06:33;8.90;90.80
19110;DHT22;9687;50.836;12.060;2023-01-10T09:09:00;8.90;90.40
19110;DHT22;9687;50.836;12.060;2023-01-10T09:11:32;9.00;90.40
19110;DHT22;9687;50.836;12.060;2023-01-10T09:13:59;9.00;90.40
19110;DHT22;9687;50.836;12.060;2023-01-10T09:16:29;9.00;90.40
19110;DHT22;9687;50.836;12.060;2023-01-10T09:18:58;9.00;90.30
19110;DHT22;9687;50.836;12.060;2023-01-10T12:44:48;9.70;80.50
19110;DHT22;9687;50.836;12.060;2023-01-10T12:47:27;9.70;80.40
19110;DHT22;9687;50.836;12.060;2023-01-10T12:49:57;9.60;80.30
19110;DHT22;9687;50.836;12.060;2023-01-10T12:52:31;9.60;80.10
19110;DHT22;9687;50.836;12.060;2023-01-10T12:55:00;9.60;80.20
19110;DHT22;9687;50.836;12.060;2023-01-10T12:57:30;9.60;80.20
19110;DHT22;9687;50.836;12.060;2023-01-10T13:00:14;9.60;80.20
19110;DHT22;9687;50.836;12.060;2023-01-10T13:02:51;9.60;80.30
19110;DHT22;9687;50.836;12.060;2023-01-10T13:05:20;9.60;80.10
19110;DHT22;9687;50.836;12.060;2023-01-10T13:07:48;9.60;80.10
19110;DHT22;9687;50.836;12.060;2023-01-10T13:10:19;9.60;79.90
19110;DHT22;9687;50.836;12.060;2023-01-10T13:12:54;9.60;80.10
19110;DHT22;9687;50.836;12.060;2023-01-10T13:15:27;9.60;80.20
19110;DHT22;9687;50.836;12.060;2023-01-10T13:17:58;9.60;80.30
19110;DHT22;9687;50.836;12.060;2023-01-10T13:20:36;9.60;80.40
19110;DHT22;9687;50.836;12.060;2023-01-10T13:25:59;9.50;80.00
19110;DHT22;9687;50.836;12.060;2023-01-10T13:28:31;9.60;80.90
19110;DHT22;9687;50.836;12.060;2023-01-10T13:31:05;9.60;80.20
19110;DHT22;9687;50.836;12.060;2023-01-10T13:33:35;9.60;80.10
19110;DHT22;9687;50.836;12.060;2023-01-10T13:36:08;9.50;80.10
19110;DHT22;9687;50.836;12.060;2023-01-10T13:38:38;9.50;80.10
19110;DHT22;9687;50.836;12.060;2023-01-10T13:41:11;9.50;80.20
19110;DHT22;9687;50.836;12.060;2023-01-10T14:46:46;9.30;82.00
19110;DHT22;9687;50.836;12.060;2023-01-10T14:49:18;9.30;82.00
19110;DHT22;9687;50.836;12.060;2023-01-10T14:51:48;9.30;81.90
19110;DHT22;9687;50.836;12.060;2023-01-10T14:54:18;9.30;81.60
19110;DHT22;9687;50.836;12.060;2023-01-10T14:56:50;9.30;81.40
19110;DHT22;9687;50.836;12.060;2023-01-10T14:59:23;9.10;81.20
19110;DHT22;9687;50.836;12.060;2023-01-10T15:01:52;9.30;81.40
19110;DHT22;9687;50.836;12.060;2023-01-10T15:04:23;9.30;81.40
19110;DHT22;9687;50.836;12.060;2023-01-10T15:06:53;9.30;81.40
19110;DHT22;9687;50.836;12.060;2023-01-10T15:09:24;9.30;81.40
19110;DHT22;9687;50.836;12.060;2023-01-10T15:11:51;9.30;81.40
19110;DHT22;9687;50.836;12.060;2023-01-10T15:14:21;9.30;81.40
19110;DHT22;9687;50.836;12.060;2023-01-10T15:17:01;9.30;81.40
19110;DHT22;9687;50.836;12.060;2023-01-10T15:19:38;9.30;81.40
19110;DHT22;9687;50.836;12.060;2023-01-10T15:22:26;9.20;81.30
19110;DHT22;9687;50.836;12.060;2023-01-10T15:24:57;9.20;81.30
19110;DHT22;9687;50.836;12.060;2023-01-10T15:27:26;9.20;81.30
19110;DHT22;9687;50.836;12.060;2023-01-10T15:29:55;9.20;81.30
19110;DHT22;9687;50.836;12.060;2023-01-10T15:38:29;9.10;81.20
19110;DHT22;9687;50.836;12.060;2023-01-10T15:41:01;9.10;81.20
19110;DHT22;9687;50.836;12.060;2023-01-10T15:43:34;9.10;81.20
19110;DHT22;9687;50.836;12.060;2023-01-10T17:46:53;8.10;83.10
19110;DHT22;9687;50.836;12.060;2023-01-10T17:49:21;8.10;83.10
19110;DHT22;9687;50.836;12.060;2023-01-10T17:51:48;8.10;83.10
19110;DHT22;9687;50.836;12.060;2023-01-10T17:54:18;8.00;83.10
19110;DHT22;9687;50.836;12.060;2023-01-10T17:56:45;8.00;83.00
19110;DHT22;9687;50.836;12.060;2023-01-10T17:59:12;8.00;83.20
19110;DHT22;9687;50.836;12.060;2023-01-10T18:01:39;8.00;83.10
19110;DHT22;9687;50.836;12.060;2023-01-10T18:04:08;7.90;83.10
19110;DHT22;9687;50.836;12.060;2023-01-10T18:06:36;7.90;83.20
19110;DHT22;9687;50.836;12.060;2023-01-10T18:09:04;7.90;84.00
19110;DHT22;9687;50.836;12.060;2023-01-10T18:11:32;7.90;82.60
19110;DHT22;9687;50.836;12.060;2023-01-10T18:14:00;7.90;83.20
19110;DHT22;9687;50.836;12.060;2023-01-10T18:16:47;7.80;82.60
19110;DHT22;9687;50.836;12.060;2023-01-10T18:19:15;7.80;83.30
19110;DHT22;9687;50.836;12.060;2023-01-10T18:21:43;7.80;83.40
19110;DHT22;9687;50.836;12.060;2023-01-10T18:24:10;7.80;83.40
19110;DHT22;9687;50.836;12.060;2023-01-10T18:26:37;7.80;83.50
19110;DHT22;9687;50.836;12.060;2023-01-10T18:29:05;7.80;83.50
19110;DHT22;9687;50.836;12.060;2023-01-10T18:31:32;7.80;83.50
19110;DHT22;9687;50.836;12.060;2023-01-10T18:33:59;7.80;83.50
19110;DHT22;9687;50.836;12.060;2023-01-10T18:36:28;7.70;82.80
19110;DHT22;9687;50.836;12.060;2023-01-10T18:38:56;7.70;83.60
19110;DHT22;9687;50.836;12.060;2023-01-10T18:41:25;7.70;83.60
19110;DHT22;9687;50.836;12.060;2023-01-10T18:43:52;7.70;83.60
19110;DHT22;9687;50.836;12.060;2023-01-10T18:46:20;7.70;83.70
19110;DHT22;9687;50.836;12.060;2023-01-10T18:48:50;7.70;83.70
19110;DHT22;9687;50.836;12.060;2023-01-10T18:51:17;7.70;83.70
19110;DHT22;9687;50.836;12.060;2023-01-10T18:53:46;7.70;83.80
19110;DHT22;9687;50.836;12.060;2023-01-10T18:56:13;7.70;83.90
19110;DHT22;9687;50.836;12.060;2023-01-10T18:58:41;7.70;83.90
19110;DHT22;9687;50.836;12.060;2023-01-10T19:01:09;7.70;83.90
19110;DHT22;9687;50.836;12.060;2023-01-10T19:03:38;7.70;83.90
19110;DHT22;9687;50.836;12.060;2023-01-10T19:06:06;7.70;83.80
19110;DHT22;9687;50.836;12.060;2023-01-10T19:08:35;7.70;83.90
19110;DHT22;9687;50.836;12.060;2023-01-10T19:11:04;7.90;84.20
19110;DHT22;9687;50.836;12.060;2023-01-10T19:13:33;7.70;83.90
19110;DHT22;9687;50.836;12.060;2023-01-10T19:16:08;7.60;83.80
19110;DHT22;9687;50.836;12.060;2023-01-10T19:18:38;7.70;83.80
19110;DHT22;9687;50.836;12.060;2023-01-10T19:21:06;7.70;83.90
19110;DHT22;9687;50.836;12.060;2023-01-10T19:23:41;7.60;83.80
19110;DHT22;9687;50.836;12.060;2023-01-10T19:26:10;7.60;83.80
19110;DHT22;9687;50.836;12.060;2023-01-10T19:28:38;7.60;83.20
19110;DHT22;9687;50.836;12.060;2023-01-10T19:31:07;7.60;84.00
19110;DHT22;9687;50.836;12.060;2023-01-10T19:33:34;7.50;84.00
19110;DHT22;9687;50.836;12.060;2023-01-10T19:36:06;7.50;84.20
19110;DHT22;9687;50.836;12.060;2023-01-10T19:38:34;7.50;84.30
19110;DHT22;9687;50.836;12.060;2023-01-10T19:41:04;7.60;84.40
19110;DHT22;9687;50.836;12.060;2023-01-10T19:43:33;7.60;84.40
19110;DHT22;9687;50.836;12.060;2023-01-10T20:47:09;7.70;83.90
19110;DHT22;9687;50.836;12.060;2023-01-10T20:49:37;7.60;83.80
19110;DHT22;9687;50.836;12.060;2023-01-10T20:52:04;7.60;83.80
19110;DHT22;9687;50.836;12.060;2023-01-10T20:54:31;7.60;83.80
19110;DHT22;9687;50.836;12.060;2023-01-10T20:56:59;7.60;84.00
19110;DHT22;9687;50.836;12.060;2023-01-10T20:59:27;7.60;84.10
19110;DHT22;9687;50.836;12.060;2023-01-10T21:01:54;7.60;84.20
19110;DHT22;9687;50.836;12.060;2023-01-10T21:04:23;7.60;84.20
19110;DHT22;9687;50.836;12.060;2023-01-10T21:06:50;7.60;84.20
19110;DHT22;9687;50.836;12.060;2023-01-10T21:09:18;7.60;84.10
19110;DHT22;9687;50.836;12.060;2023-01-10T21:11:46;7.60;84.20
19110;DHT22;9687;50.836;12.060;2023-01-10T21:14:13;7.70;84.80
19110;DHT22;9687;50.836;12.060;2023-01-10T21:16:40;7.70;84.80
19110;DHT22;9687;50.836;12.060;2023-01-10T21:19:07;7.70;84.60
19110;DHT22;9687;50.836;12.060;2023-01-10T21:21:36;7.70;84.20
19110;DHT22;9687;50.836;12.060;2023-01-10T21:24:06;7.80;84.10
19110;DHT22;9687;50.836;12.060;2023-01-10T21:26:33;7.80;84.00
19110;DHT22;9687;50.836;12.060;2023-01-10T21:29:00;7.70;83.50
19110;DHT22;9687;50.836;12.060;2023-01-10T21:31:28;7.70;83.60
19110;DHT22;9687;50.836;12.060;2023-01-10T21:33:55;7.70;83.60
19110;DHT22;9687;50.836;12.060;2023-01-10T21:36:23;7.70;83.70
19110;DHT22;9687;50.836;12.060;2023-01-10T21:38:51;7.90;83.80
19110;DHT22;9687;50.836;12.060;2023-01-10T21:41:19;7.80;83.60
19110;DHT22;9687;50.836;12.060;2023-01-10T21:44:00;7.80;83.50
19110;DHT22;9687;50.836;12.060;2023-01-10T22:47:20;7.70;81.10
19110;DHT22;9687;50.836;12.060;2023-01-10T22:49:47;7.70;81.50
19110;DHT22;9687;50.836;12.060;2023-01-10T22:52:14;7.70;81.60
19110;DHT22;9687;50.836;12.060;2023-01-10T22:54:42;7.70;81.40
19110;DHT22;9687;50.836;12.060;2023-01-10T22:57:09;7.70;82.00
19110;DHT22;9687;50.836;12.060;2023-01-10T22:59:38;7.70;80.60
19110;DHT22;9687;50.836;12.060;2023-01-10T23:02:06;7.70;80.50
19110;DHT22;9687;50.836;12.060;2023-01-10T23:04:35;7.70;80.90
19110;DHT22;9687;50.836;12.060;2023-01-10T23:07:02;7.70;81.00
19110;DHT22;9687;50.836;12.060;2023-01-10T23:09:32;7.70;81.00
19110;DHT22;9687;50.836;12.060;2023-01-10T23:12:00;7.70;81.10
19110;DHT22;9687;50.836;12.060;2023-01-10T23:14:27;7.70;80.90
19110;DHT22;9687;50.836;12.060;2023-01-10T23:16:54;7.80;80.90
19110;DHT22;9687;50.836;12.060;2023-01-10T23:19:22;7.80;80.90
19110;DHT22;9687;50.836;12.060;2023-01-10T23:21:51;7.80;80.20
19110;DHT22;9687;50.836;12.060;2023-01-10T23:24:20;7.80;80.30
19110;DHT22;9687;50.836;12.060;2023-01-10T23:26:47;7.80;80.30
19110;DHT22;9687;50.836;12.060;2023-01-10T23:29:15;7.90;80.00
19110;DHT22;9687;50.836;12.060;2023-01-10T23:31:43;7.90;80.00
19110;DHT22;9687;50.836;12.060;2023-01-10T23:34:14;7.90;80.00
19110;DHT22;9687;50.836;12.060;2023-01-10T23:36:41;7.80;79.90
19110;DHT22;9687;50.836;12.060;2023-01-10T23:39:13;7.80;78.90
19110;DHT22;9687;50.836;12.060;2023-01-10T23:41:44;7.90;79.50
19110;DHT22;9687;50.836;12.060;2023-01-10T23:44:11;7.80;79.60
19110;DHT22;9687;50.836;12.060;2023-01-10T23:46:38;7.80;79.70
19110;DHT22;9687;50.836;12.060;2023-01-10T23:49:06;7.80;79.60
19110;DHT22;9687;50.836;12.060;2023-01-10T23:51:33;7.80;79.80
19110;DHT22;9687;50.836;12.060;2023-01-10T23:54:02;7.80;79.90
19110;DHT22;9687;50.836;12.060;2023-01-10T23:56:31;7.80;79.60
19110;DHT22;9687;50.836;12.060;2023-01-10T23:58:58;7.80;79.80
